^^
Station Historical Data
Daily Summary for August 2, 2017 Units:  Both    English   Metric
« Previous Day
Next Day »
Daily Weekly Monthly Yearly Custom
  High: Low: Average:
Temperature: 73.8 °F /  23.2 °C 44.2 °F /  6.8 °C 58.8 °F /  14.9 °C
Dew Point: 39.0 °F /  3.9 °C 28.8 °F /  -1.8 °C 31.7 °F /  -0.2 °C
Humidity: 58% 21% 38%
Wind Speed: 4.9mph /  7.9km/h - 0.5mph /  0.8km/h
Wind Gust: 8.0mph /  12.9km/h - -
Wind- - SSE
Pressure: 30.45 in /  1031 hPa 30.33 in /  1027 hPa -
Precipitation: 0.00 in /  0 mm    
Historical Graphs
 
 
Tabular Data for August 2, 2017
Time Temperature Dew Point Pressure Wind Wind Speed Wind Gust Humidity Rainfall Rate (Hourly) solar Conditions
00:01 50.4 °F /  10.2 °C 30.4 °F /  -0.9 °C 30.37in /  1028.3hPa SE 0.9mph /  1.4km/h 2.0mph /  3.2km/h 46% 0.00in /  0mm 0.0 W/m2
00:07 50.4 °F /  10.2 °C 30.9 °F /  -0.6 °C 30.37in /  1028.3hPa Calm   3.0mph /  4.8km/h 47% 0.00in /  0mm 0.0 W/m2
00:13 50.5 °F /  10.3 °C 30.6 °F /  -0.8 °C 30.37in /  1028.3hPa Calm   1.0mph /  1.6km/h 46% 0.00in /  0mm 0.0 W/m2
00:19 50.5 °F /  10.3 °C 30.6 °F /  -0.8 °C 30.37in /  1028.3hPa Calm   2.0mph /  3.2km/h 46% 0.00in /  0mm 0.0 W/m2
00:21 50.5 °F /  10.3 °C 30.6 °F /  -0.8 °C 30.37in /  1028.3hPa ENE 0.9mph /  1.4km/h 2.0mph /  3.2km/h 46% 0.00in /  0mm 0.0 W/m2
00:27 50.4 °F /  10.2 °C 30.4 °F /  -0.9 °C 30.38in /  1028.7hPa Calm   1.0mph /  1.6km/h 46% 0.00in /  0mm 0.0 W/m2
00:33 50.2 °F /  10.1 °C 30.7 °F /  -0.7 °C 30.38in /  1028.7hPa Calm     47% 0.00in /  0mm 0.0 W/m2
00:40 49.8 °F /  9.9 °C 30.4 °F /  -0.9 °C 30.38in /  1028.7hPa Calm     47% 0.00in /  0mm 0.0 W/m2
00:45 49.5 °F /  9.7 °C 30.6 °F /  -0.8 °C 30.38in /  1028.7hPa Calm     48% 0.00in /  0mm 0.0 W/m2
00:51 48.9 °F /  9.4 °C 30.6 °F /  -0.8 °C 30.38in /  1028.7hPa ESE 0.9mph /  1.4km/h 2.0mph /  3.2km/h 49% 0.00in /  0mm 0.0 W/m2
00:57 48.9 °F /  9.4 °C 31.1 °F /  -0.5 °C 30.38in /  1028.7hPa Calm     50% 0.00in /  0mm 0.0 W/m2
01:03 48.7 °F /  9.3 °C 30.4 °F /  -0.9 °C 30.38in /  1028.7hPa Calm     49% 0.00in /  0mm 0.0 W/m2
01:09 48.6 °F /  9.2 °C 30.7 °F /  -0.7 °C 30.38in /  1028.7hPa Calm     50% 0.00in /  0mm 0.0 W/m2
01:15 48.2 °F /  9 °C 30.4 °F /  -0.9 °C 30.38in /  1028.7hPa Calm     50% 0.00in /  0mm 0.0 W/m2
01:21 48.0 °F /  8.9 °C 30.7 °F /  -0.7 °C 30.38in /  1028.7hPa Calm     51% 0.00in /  0mm 0.0 W/m2
01:27 47.8 °F /  8.8 °C 30.6 °F /  -0.8 °C 30.37in /  1028.3hPa Calm   1.0mph /  1.6km/h 51% 0.00in /  0mm 0.0 W/m2
01:33 47.7 °F /  8.7 °C 30.4 °F /  -0.9 °C 30.37in /  1028.3hPa Calm   1.0mph /  1.6km/h 51% 0.00in /  0mm 0.0 W/m2
01:39 47.7 °F /  8.7 °C 30.9 °F /  -0.6 °C 30.37in /  1028.3hPa Calm     52% 0.00in /  0mm 0.0 W/m2
01:45 47.7 °F /  8.7 °C 30.4 °F /  -0.9 °C 30.37in /  1028.3hPa ENE 2.0mph /  3.2km/h 5.0mph /  8km/h 51% 0.00in /  0mm 0.0 W/m2
01:51 47.8 °F /  8.8 °C 30.6 °F /  -0.8 °C 30.37in /  1028.3hPa Calm   1.0mph /  1.6km/h 51% 0.00in /  0mm 0.0 W/m2
01:57 48.0 °F /  8.9 °C 30.7 °F /  -0.7 °C 30.37in /  1028.3hPa Calm   1.0mph /  1.6km/h 51% 0.00in /  0mm 0.0 W/m2
02:03 48.2 °F /  9 °C 30.9 °F /  -0.6 °C 30.38in /  1028.7hPa Calm   3.0mph /  4.8km/h 51% 0.00in /  0mm 0.0 W/m2
02:09 48.4 °F /  9.1 °C 30.6 °F /  -0.8 °C 30.38in /  1028.7hPa Calm   2.0mph /  3.2km/h 50% 0.00in /  0mm 0.0 W/m2
02:15 48.4 °F /  9.1 °C 30.6 °F /  -0.8 °C 30.38in /  1028.7hPa Calm   1.0mph /  1.6km/h 50% 0.00in /  0mm 0.0 W/m2
02:21 48.4 °F /  9.1 °C 30.6 °F /  -0.8 °C 30.38in /  1028.7hPa Calm   1.0mph /  1.6km/h 50% 0.00in /  0mm 0.0 W/m2
02:28 48.4 °F /  9.1 °C 30.6 °F /  -0.8 °C 30.38in /  1028.7hPa Calm   2.0mph /  3.2km/h 50% 0.00in /  0mm 0.0 W/m2
02:34 48.4 °F /  9.1 °C 30.6 °F /  -0.8 °C 30.38in /  1028.7hPa Calm     50% 0.00in /  0mm 0.0 W/m2
02:40 48.4 °F /  9.1 °C 30.6 °F /  -0.8 °C 30.38in /  1028.7hPa Calm     50% 0.00in /  0mm 0.0 W/m2
02:46 48.4 °F /  9.1 °C 30.6 °F /  -0.8 °C 30.38in /  1028.7hPa Calm     50% 0.00in /  0mm 0.0 W/m2
02:52 48.0 °F /  8.9 °C 30.2 °F /  -1 °C 30.38in /  1028.7hPa Calm   2.0mph /  3.2km/h 50% 0.00in /  0mm 0.0 W/m2
02:58 48.0 °F /  8.9 °C 30.2 °F /  -1 °C 30.39in /  1029hPa Calm   1.0mph /  1.6km/h 50% 0.00in /  0mm 0.0 W/m2
03:04 48.2 °F /  9 °C 30.4 °F /  -0.9 °C 30.39in /  1029hPa Calm   3.0mph /  4.8km/h 50% 0.00in /  0mm 0.0 W/m2
03:10 48.4 °F /  9.1 °C 30.6 °F /  -0.8 °C 30.39in /  1029hPa Calm   1.0mph /  1.6km/h 50% 0.00in /  0mm 0.0 W/m2
03:16 48.4 °F /  9.1 °C 30.0 °F /  -1.1 °C 30.39in /  1029hPa Calm   2.0mph /  3.2km/h 49% 0.00in /  0mm 0.0 W/m2
03:22 48.6 °F /  9.2 °C 30.2 °F /  -1 °C 30.39in /  1029hPa ENE 0.9mph /  1.4km/h 3.0mph /  4.8km/h 49% 0.00in /  0mm 0.0 W/m2
03:28 48.6 °F /  9.2 °C 30.7 °F /  -0.7 °C 30.38in /  1028.7hPa Calm   1.0mph /  1.6km/h 50% 0.00in /  0mm 0.0 W/m2
03:34 48.6 °F /  9.2 °C 30.7 °F /  -0.7 °C 30.38in /  1028.7hPa NE 2.0mph /  3.2km/h 3.0mph /  4.8km/h 50% 0.00in /  0mm 0.0 W/m2
03:40 48.9 °F /  9.4 °C 30.6 °F /  -0.8 °C 30.38in /  1028.7hPa Calm   4.0mph /  6.4km/h 49% 0.00in /  0mm 0.0 W/m2
03:46 49.3 °F /  9.6 °C 30.9 °F /  -0.6 °C 30.38in /  1028.7hPa Calm   2.0mph /  3.2km/h 49% 0.00in /  0mm 0.0 W/m2
03:52 49.5 °F /  9.7 °C 31.1 °F /  -0.5 °C 30.39in /  1029hPa Calm   2.0mph /  3.2km/h 49% 0.00in /  0mm 0.0 W/m2
03:58 49.6 °F /  9.8 °C 30.7 °F /  -0.7 °C 30.39in /  1029hPa Calm   2.0mph /  3.2km/h 48% 0.00in /  0mm 0.0 W/m2
04:04 49.5 °F /  9.7 °C 30.6 °F /  -0.8 °C 30.39in /  1029hPa Calm   1.0mph /  1.6km/h 48% 0.00in /  0mm 0.0 W/m2
04:10 49.3 °F /  9.6 °C 30.9 °F /  -0.6 °C 30.39in /  1029hPa Calm     49% 0.00in /  0mm 0.0 W/m2
04:16 49.1 °F /  9.5 °C 30.7 °F /  -0.7 °C 30.39in /  1029hPa Calm     49% 0.00in /  0mm 0.0 W/m2
04:22 48.7 °F /  9.3 °C 30.4 °F /  -0.9 °C 30.39in /  1029hPa Calm   1.0mph /  1.6km/h 49% 0.00in /  0mm 0.0 W/m2
04:28 48.6 °F /  9.2 °C 30.7 °F /  -0.7 °C 30.39in /  1029hPa Calm     50% 0.00in /  0mm 0.0 W/m2
04:34 48.2 °F /  9 °C 30.4 °F /  -0.9 °C 30.39in /  1029hPa Calm     50% 0.00in /  0mm 0.0 W/m2
04:40 47.8 °F /  8.8 °C 30.6 °F /  -0.8 °C 30.39in /  1029hPa Calm     51% 0.00in /  0mm 0.0 W/m2
04:46 47.5 °F /  8.6 °C 30.7 °F /  -0.7 °C 30.39in /  1029hPa Calm     52% 0.00in /  0mm 0.0 W/m2
04:52 47.1 °F /  8.4 °C 30.4 °F /  -0.9 °C 30.40in /  1029.3hPa Calm     52% 0.00in /  0mm 0.0 W/m2
04:58 46.8 °F /  8.2 °C 30.6 °F /  -0.8 °C 30.40in /  1029.3hPa Calm     53% 0.00in /  0mm 0.0 W/m2
05:04 46.6 °F /  8.1 °C 30.4 °F /  -0.9 °C 30.40in /  1029.3hPa Calm     53% 0.00in /  0mm 0.0 W/m2
05:10 46.2 °F /  7.9 °C 30.0 °F /  -1.1 °C 30.40in /  1029.3hPa Calm   2.0mph /  3.2km/h 53% 0.00in /  0mm 0.0 W/m2
05:16 45.9 °F /  7.7 °C 30.2 °F /  -1 °C 30.40in /  1029.3hPa Calm     54% 0.00in /  0mm 0.0 W/m2
05:22 45.7 °F /  7.6 °C 30.0 °F /  -1.1 °C 30.41in /  1029.7hPa Calm     54% 0.00in /  0mm 0.0 W/m2
05:28 45.3 °F /  7.4 °C 29.7 °F /  -1.3 °C 30.41in /  1029.7hPa Calm     54% 0.00in /  0mm 0.0 W/m2
05:34 45.1 °F /  7.3 °C 30.0 °F /  -1.1 °C 30.41in /  1029.7hPa Calm   2.0mph /  3.2km/h 55% 0.00in /  0mm 0.0 W/m2
05:40 45.1 °F /  7.3 °C 30.4 °F /  -0.9 °C 30.41in /  1029.7hPa SE 0.9mph /  1.4km/h 2.0mph /  3.2km/h 56% 0.00in /  0mm 0.0 W/m2
05:46 45.5 °F /  7.5 °C 30.2 °F /  -1 °C 30.41in /  1029.7hPa Calm   1.0mph /  1.6km/h 55% 0.00in /  0mm 0.0 W/m2
05:52 45.5 °F /  7.5 °C 29.8 °F /  -1.2 °C 30.41in /  1029.7hPa Calm     54% 0.00in /  0mm 0.0 W/m2
05:58 45.3 °F /  7.4 °C 29.7 °F /  -1.3 °C 30.41in /  1029.7hPa Calm     54% 0.00in /  0mm 0.0 W/m2
06:00 45.3 °F /  7.4 °C 29.7 °F /  -1.3 °C 30.42in /  1030hPa Calm     54% 0.00in /  0mm 0.0 W/m2
06:06 45.0 °F /  7.2 °C 29.8 °F /  -1.2 °C 30.42in /  1030hPa Calm     55% 0.00in /  0mm 0.0 W/m2
06:12 44.8 °F /  7.1 °C 29.7 °F /  -1.3 °C 30.42in /  1030hPa Calm     55% 0.00in /  0mm 0.0 W/m2
06:18 44.4 °F /  6.9 °C 29.3 °F /  -1.5 °C 30.42in /  1030hPa Calm     55% 0.00in /  0mm 0.0 W/m2
06:24 44.2 °F /  6.8 °C 29.5 °F /  -1.4 °C 30.42in /  1030hPa Calm     56% 0.00in /  0mm 0.0 W/m2
06:30 44.2 °F /  6.8 °C 29.5 °F /  -1.4 °C 30.42in /  1030hPa Calm   2.0mph /  3.2km/h 56% 0.00in /  0mm 5.0 W/m2
06:36 44.2 °F /  6.8 °C 29.5 °F /  -1.4 °C 30.43in /  1030.4hPa Calm   4.0mph /  6.4km/h 56% 0.00in /  0mm 9.0 W/m2
06:42 44.4 °F /  6.9 °C 29.7 °F /  -1.3 °C 30.43in /  1030.4hPa Calm   2.0mph /  3.2km/h 56% 0.00in /  0mm 11.0 W/m2
06:48 44.4 °F /  6.9 °C 29.7 °F /  -1.3 °C 30.43in /  1030.4hPa Calm   3.0mph /  4.8km/h 56% 0.00in /  0mm 14.0 W/m2
06:54 44.4 °F /  6.9 °C 29.7 °F /  -1.3 °C 30.43in /  1030.4hPa Calm   1.0mph /  1.6km/h 56% 0.00in /  0mm 16.0 W/m2
07:00 44.8 °F /  7.1 °C 30.6 °F /  -0.8 °C 30.43in /  1030.4hPa Calm     57% 0.00in /  0mm 18.0 W/m2
07:06 45.0 °F /  7.2 °C 31.1 °F /  -0.5 °C 30.44in /  1030.7hPa Calm   4.0mph /  6.4km/h 58% 0.00in /  0mm 19.0 W/m2
07:12 45.3 °F /  7.4 °C 31.5 °F /  -0.3 °C 30.44in /  1030.7hPa Calm   2.0mph /  3.2km/h 58% 0.00in /  0mm 21.0 W/m2
07:18 45.9 °F /  7.7 °C 31.5 °F /  -0.3 °C 30.44in /  1030.7hPa Calm     57% 0.00in /  0mm 23.0 W/m2
07:24 46.6 °F /  8.1 °C 32.2 °F /  0.1 °C 30.44in /  1030.7hPa Calm   1.0mph /  1.6km/h 57% 0.00in /  0mm 25.0 W/m2
07:30 47.1 °F /  8.4 °C 32.2 °F /  0.1 °C 30.44in /  1030.7hPa Calm     56% 0.00in /  0mm 28.0 W/m2
07:36 47.7 °F /  8.7 °C 32.7 °F /  0.4 °C 30.44in /  1030.7hPa East 0.9mph /  1.4km/h 2.0mph /  3.2km/h 56% 0.00in /  0mm 28.0 W/m2
07:42 48.4 °F /  9.1 °C 32.9 °F /  0.5 °C 30.44in /  1030.7hPa Calm   2.0mph /  3.2km/h 55% 0.00in /  0mm 30.0 W/m2
07:48 48.9 °F /  9.4 °C 33.4 °F /  0.8 °C 30.44in /  1030.7hPa Calm   2.0mph /  3.2km/h 55% 0.00in /  0mm 32.0 W/m2
07:54 49.6 °F /  9.8 °C 33.6 °F /  0.9 °C 30.44in /  1030.7hPa Calm   2.0mph /  3.2km/h 54% 0.00in /  0mm 33.0 W/m2
08:01 50.5 °F /  10.3 °C 34.5 °F /  1.4 °C 30.45in /  1031hPa Calm   1.0mph /  1.6km/h 54% 0.00in /  0mm 33.0 W/m2
08:05 51.1 °F /  10.6 °C 35.1 °F /  1.7 °C 30.44in /  1030.7hPa East 2.9mph /  4.7km/h 3.0mph /  4.8km/h 54% 0.00in /  0mm 35.0 W/m2
08:11 52.3 °F /  11.3 °C 35.8 °F /  2.1 °C 30.44in /  1030.7hPa Calm   2.0mph /  3.2km/h 53% 0.00in /  0mm 37.0 W/m2
08:17 53.4 °F /  11.9 °C 36.3 °F /  2.4 °C 30.44in /  1030.7hPa Calm   2.0mph /  3.2km/h 52% 0.00in /  0mm 39.0 W/m2
08:23 54.5 °F /  12.5 °C 36.3 °F /  2.4 °C 30.44in /  1030.7hPa Calm   1.0mph /  1.6km/h 50% 0.00in /  0mm 171.0 W/m2
08:29 56.5 °F /  13.6 °C 37.0 °F /  2.8 °C 30.45in /  1031hPa NE 0.9mph /  1.4km/h 4.0mph /  6.4km/h 48% 0.00in /  0mm 376.0 W/m2
08:35 58.5 °F /  14.7 °C 37.2 °F /  2.9 °C 30.44in /  1030.7hPa Calm   2.0mph /  3.2km/h 45% 0.00in /  0mm 397.0 W/m2
08:41 60.3 °F /  15.7 °C 37.0 °F /  2.8 °C 30.44in /  1030.7hPa NE 0.9mph /  1.4km/h 2.0mph /  3.2km/h 42% 0.00in /  0mm 418.0 W/m2
08:47 61.5 °F /  16.4 °C 37.6 °F /  3.1 °C 30.44in /  1030.7hPa Calm   2.0mph /  3.2km/h 41% 0.00in /  0mm 438.0 W/m2
08:53 62.8 °F /  17.1 °C 38.7 °F /  3.7 °C 30.44in /  1030.7hPa Calm   2.0mph /  3.2km/h 41% 0.00in /  0mm 454.0 W/m2
08:59 63.9 °F /  17.7 °C 38.5 °F /  3.6 °C 30.44in /  1030.7hPa Calm   5.0mph /  8km/h 39% 0.00in /  0mm 267.0 W/m2
09:05 64.8 °F /  18.2 °C 38.5 °F /  3.6 °C 30.44in /  1030.7hPa NNE 2.9mph /  4.7km/h 4.0mph /  6.4km/h 38% 0.00in /  0mm 492.0 W/m2
09:12 65.1 °F /  18.4 °C 38.1 °F /  3.4 °C 30.44in /  1030.7hPa ESE 2.0mph /  3.2km/h 2.0mph /  3.2km/h 37% 0.00in /  0mm 508.0 W/m2
09:18 65.7 °F /  18.7 °C 37.9 °F /  3.3 °C 30.44in /  1030.7hPa Calm   2.0mph /  3.2km/h 36% 0.00in /  0mm 524.0 W/m2
09:24 66.4 °F /  19.1 °C 38.7 °F /  3.7 °C 30.44in /  1030.7hPa Calm   4.0mph /  6.4km/h 36% 0.00in /  0mm 541.0 W/m2
09:30 66.9 °F /  19.4 °C 39.0 °F /  3.9 °C 30.44in /  1030.7hPa East 2.0mph /  3.2km/h 5.0mph /  8km/h 36% 0.00in /  0mm 557.0 W/m2
09:36 67.3 °F /  19.6 °C 38.7 °F /  3.7 °C 30.44in /  1030.7hPa Calm     35% 0.00in /  0mm 571.0 W/m2
09:42 67.6 °F /  19.8 °C 38.3 °F /  3.5 °C 30.44in /  1030.7hPa East 0.9mph /  1.4km/h 6.0mph /  9.7km/h 34% 0.00in /  0mm 584.0 W/m2
09:48 68.4 °F /  20.2 °C 38.8 °F /  3.8 °C 30.44in /  1030.7hPa NE 2.0mph /  3.2km/h 6.0mph /  9.7km/h 34% 0.00in /  0mm 599.0 W/m2
09:54 68.5 °F /  20.3 °C 39.0 °F /  3.9 °C 30.44in /  1030.7hPa ENE 0.9mph /  1.4km/h 6.0mph /  9.7km/h 34% 0.00in /  0mm 466.0 W/m2
10:00 69.1 °F /  20.6 °C 38.8 °F /  3.8 °C 30.44in /  1030.7hPa Calm   3.0mph /  4.8km/h 33% 0.00in /  0mm 417.0 W/m2
10:06 69.4 °F /  20.8 °C 38.3 °F /  3.5 °C 30.44in /  1030.7hPa NNE 2.9mph /  4.7km/h 5.0mph /  8km/h 32% 0.00in /  0mm 636.0 W/m2
10:12 69.6 °F /  20.9 °C 38.5 °F /  3.6 °C 30.44in /  1030.7hPa NE 4.9mph /  7.9km/h 5.0mph /  8km/h 32% 0.00in /  0mm 649.0 W/m2
10:18 69.8 °F /  21 °C 37.8 °F /  3.2 °C 30.43in /  1030.4hPa SE 0.9mph /  1.4km/h 1.0mph /  1.6km/h 31% 0.00in /  0mm 659.0 W/m2
10:24 70.0 °F /  21.1 °C 38.8 °F /  3.8 °C 30.43in /  1030.4hPa Calm   3.0mph /  4.8km/h 32% 0.00in /  0mm 666.0 W/m2
10:30 69.8 °F /  21 °C 37.8 °F /  3.2 °C 30.43in /  1030.4hPa North 2.9mph /  4.7km/h 5.0mph /  8km/h 31% 0.00in /  0mm 680.0 W/m2
10:36 70.2 °F /  21.2 °C 38.1 °F /  3.4 °C 30.43in /  1030.4hPa Calm   3.0mph /  4.8km/h 31% 0.00in /  0mm 687.0 W/m2
10:42 70.3 °F /  21.3 °C 38.3 °F /  3.5 °C 30.42in /  1030hPa Calm   2.0mph /  3.2km/h 31% 0.00in /  0mm 693.0 W/m2
10:48 70.7 °F /  21.5 °C 38.7 °F /  3.7 °C 30.42in /  1030hPa WSW 0.9mph /  1.4km/h 4.0mph /  6.4km/h 31% 0.00in /  0mm 714.0 W/m2
10:55 70.7 °F /  21.5 °C 38.7 °F /  3.7 °C 30.42in /  1030hPa WNW 4.0mph /  6.4km/h 4.0mph /  6.4km/h 31% 0.00in /  0mm 759.0 W/m2
11:01 70.7 °F /  21.5 °C 37.8 °F /  3.2 °C 30.41in /  1029.7hPa SE 2.0mph /  3.2km/h 3.0mph /  4.8km/h 30% 0.00in /  0mm 766.0 W/m2
11:07 71.1 °F /  21.7 °C 38.1 °F /  3.4 °C 30.41in /  1029.7hPa NNE 2.0mph /  3.2km/h 2.0mph /  3.2km/h 30% 0.00in /  0mm 823.0 W/m2
11:13 71.8 °F /  22.1 °C 37.8 °F /  3.2 °C 30.41in /  1029.7hPa WNW 4.0mph /  6.4km/h 7.0mph /  11.3km/h 29% 0.00in /  0mm 798.0 W/m2
11:19 72.3 °F /  22.4 °C 35.6 °F /  2 °C 30.41in /  1029.7hPa Calm   7.0mph /  11.3km/h 26% 0.00in /  0mm 775.0 W/m2
11:25 72.3 °F /  22.4 °C 35.6 °F /  2 °C 30.41in /  1029.7hPa Calm   2.0mph /  3.2km/h 26% 0.00in /  0mm 780.0 W/m2
11:31 72.0 °F /  22.2 °C 34.2 °F /  1.2 °C 30.41in /  1029.7hPa WSW 2.0mph /  3.2km/h 3.0mph /  4.8km/h 25% 0.00in /  0mm 772.0 W/m2
11:37 72.0 °F /  22.2 °C 33.3 °F /  0.7 °C 30.41in /  1029.7hPa NW 0.9mph /  1.4km/h 5.0mph /  8km/h 24% 0.00in /  0mm 759.0 W/m2
11:43 71.8 °F /  22.1 °C 34.0 °F /  1.1 °C 30.40in /  1029.3hPa Calm   8.0mph /  12.9km/h 25% 0.00in /  0mm 747.0 W/m2
11:49 71.2 °F /  21.8 °C 33.6 °F /  0.9 °C 30.40in /  1029.3hPa WSW 0.9mph /  1.4km/h 5.0mph /  8km/h 25% 0.00in /  0mm 740.0 W/m2
11:55 71.2 °F /  21.8 °C 33.6 °F /  0.9 °C 30.40in /  1029.3hPa WSW 2.0mph /  3.2km/h 7.0mph /  11.3km/h 25% 0.00in /  0mm 737.0 W/m2
12:01 71.4 °F /  21.9 °C 33.8 °F /  1 °C 30.39in /  1029hPa North 4.0mph /  6.4km/h 4.0mph /  6.4km/h 25% 0.00in /  0mm 735.0 W/m2
12:08 72.1 °F /  22.3 °C 34.3 °F /  1.3 °C 30.39in /  1029hPa NNW 2.9mph /  4.7km/h 8.0mph /  12.9km/h 25% 0.00in /  0mm 738.0 W/m2
12:14 72.3 °F /  22.4 °C 33.4 °F /  0.8 °C 30.39in /  1029hPa West 2.0mph /  3.2km/h 5.0mph /  8km/h 24% 0.00in /  0mm 740.0 W/m2
12:20 72.9 °F /  22.7 °C 34.0 °F /  1.1 °C 30.38in /  1028.7hPa Calm   6.0mph /  9.7km/h 24% 0.00in /  0mm 729.0 W/m2
12:26 73.0 °F /  22.8 °C 33.1 °F /  0.6 °C 30.38in /  1028.7hPa Calm   2.0mph /  3.2km/h 23% 0.00in /  0mm 728.0 W/m2
12:32 73.0 °F /  22.8 °C 33.1 °F /  0.6 °C 30.38in /  1028.7hPa WSW 0.9mph /  1.4km/h 5.0mph /  8km/h 23% 0.00in /  0mm 717.0 W/m2
12:38 72.7 °F /  22.6 °C 33.8 °F /  1 °C 30.37in /  1028.3hPa WNW 0.9mph /  1.4km/h 6.0mph /  9.7km/h 24% 0.00in /  0mm 712.0 W/m2
12:44 72.9 °F /  22.7 °C 32.9 °F /  0.5 °C 30.37in /  1028.3hPa NNW 4.9mph /  7.9km/h 7.0mph /  11.3km/h 23% 0.00in /  0mm 717.0 W/m2
12:50 72.7 °F /  22.6 °C 32.7 °F /  0.4 °C 30.37in /  1028.3hPa WSW 2.9mph /  4.7km/h 8.0mph /  12.9km/h 23% 0.00in /  0mm 708.0 W/m2
12:56 72.7 °F /  22.6 °C 32.7 °F /  0.4 °C 30.37in /  1028.3hPa West 2.0mph /  3.2km/h 7.0mph /  11.3km/h 23% 0.00in /  0mm 696.0 W/m2
13:02 72.7 °F /  22.6 °C 32.7 °F /  0.4 °C 30.36in /  1028hPa South 0.9mph /  1.4km/h 6.0mph /  9.7km/h 23% 0.00in /  0mm 694.0 W/m2
13:08 73.0 °F /  22.8 °C 32.0 °F /  0 °C 30.36in /  1028hPa West 2.0mph /  3.2km/h 3.0mph /  4.8km/h 22% 0.00in /  0mm 682.0 W/m2
13:14 73.0 °F /  22.8 °C 32.0 °F /  0 °C 30.36in /  1028hPa Calm   1.0mph /  1.6km/h 22% 0.00in /  0mm 682.0 W/m2
13:20 73.4 °F /  23 °C 32.2 °F /  0.1 °C 30.36in /  1028hPa Calm   4.0mph /  6.4km/h 22% 0.00in /  0mm 668.0 W/m2
13:26 73.8 °F /  23.2 °C 32.5 °F /  0.3 °C 30.36in /  1028hPa Calm   3.0mph /  4.8km/h 22% 0.00in /  0mm 664.0 W/m2
13:32 73.2 °F /  22.9 °C 30.9 °F /  -0.6 °C 30.35in /  1027.7hPa South 2.0mph /  3.2km/h 2.0mph /  3.2km/h 21% 0.00in /  0mm 647.0 W/m2
13:38 73.0 °F /  22.8 °C 30.7 °F /  -0.7 °C 30.35in /  1027.7hPa SSW 0.9mph /  1.4km/h 5.0mph /  8km/h 21% 0.00in /  0mm 640.0 W/m2
13:45 72.9 °F /  22.7 °C 30.6 °F /  -0.8 °C 30.35in /  1027.7hPa NW 2.0mph /  3.2km/h 5.0mph /  8km/h 21% 0.00in /  0mm 633.0 W/m2
13:51 73.2 °F /  22.9 °C 32.2 °F /  0.1 °C 30.35in /  1027.7hPa Calm   2.0mph /  3.2km/h 22% 0.00in /  0mm 610.0 W/m2
13:57 73.2 °F /  22.9 °C 30.9 °F /  -0.6 °C 30.34in /  1027.3hPa NW 4.9mph /  7.9km/h 7.0mph /  11.3km/h 21% 0.00in /  0mm 601.0 W/m2
14:03 73.6 °F /  23.1 °C 31.3 °F /  -0.4 °C 30.34in /  1027.3hPa West 2.0mph /  3.2km/h 5.0mph /  8km/h 21% 0.00in /  0mm 584.0 W/m2
14:09 73.6 °F /  23.1 °C 31.3 °F /  -0.4 °C 30.34in /  1027.3hPa North 0.9mph /  1.4km/h 6.0mph /  9.7km/h 21% 0.00in /  0mm 573.0 W/m2
14:15 73.6 °F /  23.1 °C 31.3 °F /  -0.4 °C 30.34in /  1027.3hPa WNW 2.0mph /  3.2km/h 3.0mph /  4.8km/h 21% 0.00in /  0mm 557.0 W/m2
14:21 73.6 °F /  23.1 °C 31.3 °F /  -0.4 °C 30.34in /  1027.3hPa Calm   5.0mph /  8km/h 21% 0.00in /  0mm 545.0 W/m2
14:28 73.6 °F /  23.1 °C 31.3 °F /  -0.4 °C 30.34in /  1027.3hPa Calm   1.0mph /  1.6km/h 21% 0.00in /  0mm 529.0 W/m2
14:34 73.6 °F /  23.1 °C 31.3 °F /  -0.4 °C 30.33in /  1027hPa SW 2.0mph /  3.2km/h 3.0mph /  4.8km/h 21% 0.00in /  0mm 513.0 W/m2
14:40 73.0 °F /  22.8 °C 30.7 °F /  -0.7 °C 30.33in /  1027hPa Calm   4.0mph /  6.4km/h 21% 0.00in /  0mm 499.0 W/m2
14:46 73.0 °F /  22.8 °C 30.7 °F /  -0.7 °C 30.33in /  1027hPa SSE 0.9mph /  1.4km/h 3.0mph /  4.8km/h 21% 0.00in /  0mm 478.0 W/m2
14:52 73.0 °F /  22.8 °C 30.7 °F /  -0.7 °C 30.33in /  1027hPa Calm   3.0mph /  4.8km/h 21% 0.00in /  0mm 466.0 W/m2
14:58 73.0 °F /  22.8 °C 30.7 °F /  -0.7 °C 30.33in /  1027hPa SSW 4.0mph /  6.4km/h 5.0mph /  8km/h 21% 0.00in /  0mm 441.0 W/m2
15:05 72.9 °F /  22.7 °C 30.6 °F /  -0.8 °C 30.33in /  1027hPa Calm   3.0mph /  4.8km/h 21% 0.00in /  0mm 424.0 W/m2
15:11 72.3 °F /  22.4 °C 30.2 °F /  -1 °C 30.33in /  1027hPa SW 2.0mph /  3.2km/h 5.0mph /  8km/h 21% 0.00in /  0mm 410.0 W/m2
15:17 72.3 °F /  22.4 °C 31.3 °F /  -0.4 °C 30.33in /  1027hPa SSE 0.9mph /  1.4km/h 3.0mph /  4.8km/h 22% 0.00in /  0mm 392.0 W/m2
15:23 72.7 °F /  22.6 °C 30.6 °F /  -0.8 °C 30.33in /  1027hPa SSW 0.9mph /  1.4km/h 6.0mph /  9.7km/h 21% 0.00in /  0mm 369.0 W/m2
15:29 72.5 °F /  22.5 °C 31.5 °F /  -0.3 °C 30.33in /  1027hPa Calm   1.0mph /  1.6km/h 22% 0.00in /  0mm 352.0 W/m2
15:35 72.5 °F /  22.5 °C 31.5 °F /  -0.3 °C 30.33in /  1027hPa Calm   2.0mph /  3.2km/h 22% 0.00in /  0mm 327.0 W/m2
15:41 72.3 °F /  22.4 °C 30.2 °F /  -1 °C 30.33in /  1027hPa Calm   3.0mph /  4.8km/h 21% 0.00in /  0mm 309.0 W/m2
15:48 72.1 °F /  22.3 °C 31.1 °F /  -0.5 °C 30.33in /  1027hPa WSW 2.0mph /  3.2km/h 2.0mph /  3.2km/h 22% 0.00in /  0mm 230.0 W/m2
15:54 72.1 °F /  22.3 °C 31.1 °F /  -0.5 °C 30.33in /  1027hPa West 0.9mph /  1.4km/h 2.0mph /  3.2km/h 22% 0.00in /  0mm 51.0 W/m2
16:00 72.0 °F /  22.2 °C 31.1 °F /  -0.5 °C 30.33in /  1027hPa NNW 4.0mph /  6.4km/h 5.0mph /  8km/h 22% 0.00in /  0mm 47.0 W/m2
16:06 71.8 °F /  22.1 °C 30.9 °F /  -0.6 °C 30.33in /  1027hPa North 2.9mph /  4.7km/h 5.0mph /  8km/h 22% 0.00in /  0mm 44.0 W/m2
16:12 71.4 °F /  21.9 °C 30.6 °F /  -0.8 °C 30.33in /  1027hPa NNE 2.0mph /  3.2km/h 2.0mph /  3.2km/h 22% 0.00in /  0mm 42.0 W/m2
16:18 71.4 °F /  21.9 °C 30.6 °F /  -0.8 °C 30.33in /  1027hPa ENE 0.9mph /  1.4km/h 4.0mph /  6.4km/h 22% 0.00in /  0mm 39.0 W/m2
16:24 71.2 °F /  21.8 °C 30.4 °F /  -0.9 °C 30.33in /  1027hPa Calm   2.0mph /  3.2km/h 22% 0.00in /  0mm 42.0 W/m2
16:30 71.1 °F /  21.7 °C 30.2 °F /  -1 °C 30.33in /  1027hPa Calm   1.0mph /  1.6km/h 22% 0.00in /  0mm 46.0 W/m2
16:37 70.5 °F /  21.4 °C 29.8 °F /  -1.2 °C 30.33in /  1027hPa Calm     22% 0.00in /  0mm 30.0 W/m2
16:43 70.3 °F /  21.3 °C 29.7 °F /  -1.3 °C 30.33in /  1027hPa NNW 0.9mph /  1.4km/h 3.0mph /  4.8km/h 22% 0.00in /  0mm 26.0 W/m2
16:49 70.2 °F /  21.2 °C 30.6 °F /  -0.8 °C 30.33in /  1027hPa Calm     23% 0.00in /  0mm 37.0 W/m2
16:55 70.0 °F /  21.1 °C 30.6 °F /  -0.8 °C 30.33in /  1027hPa Calm   1.0mph /  1.6km/h 23% 0.00in /  0mm 23.0 W/m2
17:01 70.0 °F /  21.1 °C 30.6 °F /  -0.8 °C 30.33in /  1027hPa Calm     23% 0.00in /  0mm 26.0 W/m2
17:07 69.8 °F /  21 °C 31.5 °F /  -0.3 °C 30.33in /  1027hPa Calm     24% 0.00in /  0mm 18.0 W/m2
17:13 69.4 °F /  20.8 °C 30.0 °F /  -1.1 °C 30.33in /  1027hPa Calm   2.0mph /  3.2km/h 23% 0.00in /  0mm 14.0 W/m2
17:19 69.1 °F /  20.6 °C 30.7 °F /  -0.7 °C 30.33in /  1027hPa Calm     24% 0.00in /  0mm 11.0 W/m2
17:26 68.5 °F /  20.3 °C 30.4 °F /  -0.9 °C 30.33in /  1027hPa Calm     24% 0.00in /  0mm 5.0 W/m2
17:32 67.8 °F /  19.9 °C 30.7 °F /  -0.7 °C 30.34in /  1027.3hPa Calm     25% 0.00in /  0mm 0.0 W/m2
17:38 67.3 °F /  19.6 °C 31.3 °F /  -0.4 °C 30.34in /  1027.3hPa Calm     26% 0.00in /  0mm 0.0 W/m2
17:44 66.6 °F /  19.2 °C 30.6 °F /  -0.8 °C 30.34in /  1027.3hPa Calm     26% 0.00in /  0mm 0.0 W/m2
17:50 65.8 °F /  18.8 °C 30.9 °F /  -0.6 °C 30.34in /  1027.3hPa Calm     27% 0.00in /  0mm 0.0 W/m2
17:56 65.1 °F /  18.4 °C 31.3 °F /  -0.4 °C 30.34in /  1027.3hPa Calm     28% 0.00in /  0mm 0.0 W/m2
18:02 64.6 °F /  18.1 °C 30.7 °F /  -0.7 °C 30.35in /  1027.7hPa Calm     28% 0.00in /  0mm 0.0 W/m2
18:09 63.9 °F /  17.7 °C 30.2 °F /  -1 °C 30.35in /  1027.7hPa Calm     28% 0.00in /  0mm 0.0 W/m2
18:15 63.1 °F /  17.3 °C 30.4 °F /  -0.9 °C 30.35in /  1027.7hPa WSW 0.9mph /  1.4km/h 1.0mph /  1.6km/h 29% 0.00in /  0mm 0.0 W/m2
18:21 62.2 °F /  16.8 °C 29.7 °F /  -1.3 °C 30.35in /  1027.7hPa Calm     29% 0.00in /  0mm 0.0 W/m2
18:27 61.9 °F /  16.6 °C 30.0 °F /  -1.1 °C 30.36in /  1028hPa Calm     30% 0.00in /  0mm 0.0 W/m2
18:33 61.2 °F /  16.2 °C 30.2 °F /  -1 °C 30.36in /  1028hPa Calm     31% 0.00in /  0mm 0.0 W/m2
18:39 60.6 °F /  15.9 °C 30.6 °F /  -0.8 °C 30.36in /  1028hPa Calm     32% 0.00in /  0mm 0.0 W/m2
18:45 60.1 °F /  15.6 °C 29.3 °F /  -1.5 °C 30.36in /  1028hPa Calm     31% 0.00in /  0mm 0.0 W/m2
18:51 59.5 °F /  15.3 °C 29.7 °F /  -1.3 °C 30.37in /  1028.3hPa Calm     32% 0.00in /  0mm 0.0 W/m2
18:58 59.4 °F /  15.2 °C 30.2 °F /  -1 °C 30.37in /  1028.3hPa Calm     33% 0.00in /  0mm 0.0 W/m2
19:04 58.8 °F /  14.9 °C 28.9 °F /  -1.7 °C 30.37in /  1028.3hPa Calm   1.0mph /  1.6km/h 32% 0.00in /  0mm 0.0 W/m2
19:10 58.5 °F /  14.7 °C 29.5 °F /  -1.4 °C 30.37in /  1028.3hPa Calm     33% 0.00in /  0mm 0.0 W/m2
19:16 58.3 °F /  14.6 °C 29.3 °F /  -1.5 °C 30.38in /  1028.7hPa Calm     33% 0.00in /  0mm 0.0 W/m2
19:22 57.9 °F /  14.4 °C 28.9 °F /  -1.7 °C 30.38in /  1028.7hPa Calm     33% 0.00in /  0mm 0.0 W/m2
19:28 57.7 °F /  14.3 °C 29.5 °F /  -1.4 °C 30.38in /  1028.7hPa Calm     34% 0.00in /  0mm 0.0 W/m2
19:35 57.6 °F /  14.2 °C 29.5 °F /  -1.4 °C 30.38in /  1028.7hPa Calm     34% 0.00in /  0mm 0.0 W/m2
19:41 57.2 °F /  14 °C 29.1 °F /  -1.6 °C 30.38in /  1028.7hPa Calm     34% 0.00in /  0mm 0.0 W/m2
19:47 57.0 °F /  13.9 °C 28.9 °F /  -1.7 °C 30.38in /  1028.7hPa Calm   3.0mph /  4.8km/h 34% 0.00in /  0mm 0.0 W/m2
19:53 57.0 °F /  13.9 °C 28.9 °F /  -1.7 °C 30.38in /  1028.7hPa ENE 2.0mph /  3.2km/h 3.0mph /  4.8km/h 34% 0.00in /  0mm 0.0 W/m2
19:59 57.0 °F /  13.9 °C 28.9 °F /  -1.7 °C 30.39in /  1029hPa East 0.9mph /  1.4km/h 4.0mph /  6.4km/h 34% 0.00in /  0mm 0.0 W/m2
20:05 56.8 °F /  13.8 °C 28.8 °F /  -1.8 °C 30.38in /  1028.7hPa Calm   2.0mph /  3.2km/h 34% 0.00in /  0mm 0.0 W/m2
20:11 56.8 °F /  13.8 °C 29.5 °F /  -1.4 °C 30.38in /  1028.7hPa Calm   1.0mph /  1.6km/h 35% 0.00in /  0mm 0.0 W/m2
20:17 56.7 °F /  13.7 °C 29.3 °F /  -1.5 °C 30.39in /  1029hPa NE 0.9mph /  1.4km/h 1.0mph /  1.6km/h 35% 0.00in /  0mm 0.0 W/m2
20:24 56.7 °F /  13.7 °C 30.0 °F /  -1.1 °C 30.39in /  1029hPa Calm   2.0mph /  3.2km/h 36% 0.00in /  0mm 0.0 W/m2
20:30 56.5 °F /  13.6 °C 29.8 °F /  -1.2 °C 30.39in /  1029hPa Calm   1.0mph /  1.6km/h 36% 0.00in /  0mm 0.0 W/m2
20:36 56.5 °F /  13.6 °C 29.8 °F /  -1.2 °C 30.39in /  1029hPa Calm   3.0mph /  4.8km/h 36% 0.00in /  0mm 0.0 W/m2
20:42 56.1 °F /  13.4 °C 29.5 °F /  -1.4 °C 30.39in /  1029hPa Calm   1.0mph /  1.6km/h 36% 0.00in /  0mm 0.0 W/m2
20:48 56.1 °F /  13.4 °C 29.5 °F /  -1.4 °C 30.39in /  1029hPa Calm   1.0mph /  1.6km/h 36% 0.00in /  0mm 0.0 W/m2
20:54 56.1 °F /  13.4 °C 30.2 °F /  -1 °C 30.39in /  1029hPa ENE 0.9mph /  1.4km/h 1.0mph /  1.6km/h 37% 0.00in /  0mm 0.0 W/m2
21:00 55.9 °F /  13.3 °C 30.0 °F /  -1.1 °C 30.39in /  1029hPa Calm     37% 0.00in /  0mm 0.0 W/m2
21:07 55.9 °F /  13.3 °C 30.0 °F /  -1.1 °C 30.39in /  1029hPa Calm     37% 0.00in /  0mm 0.0 W/m2
21:12 55.9 °F /  13.3 °C 30.0 °F /  -1.1 °C 30.39in /  1029hPa Calm     37% 0.00in /  0mm 0.0 W/m2
21:19 55.8 °F /  13.2 °C 29.8 °F /  -1.2 °C 30.39in /  1029hPa Calm     37% 0.00in /  0mm 0.0 W/m2
21:25 55.6 °F /  13.1 °C 30.4 °F /  -0.9 °C 30.39in /  1029hPa Calm     38% 0.00in /  0mm 0.0 W/m2
21:31 55.0 °F /  12.8 °C 29.8 °F /  -1.2 °C 30.39in /  1029hPa Calm     38% 0.00in /  0mm 0.0 W/m2
21:37 54.9 °F /  12.7 °C 29.7 °F /  -1.3 °C 30.39in /  1029hPa Calm   1.0mph /  1.6km/h 38% 0.00in /  0mm 0.0 W/m2
21:43 54.5 °F /  12.5 °C 30.0 °F /  -1.1 °C 30.39in /  1029hPa Calm   3.0mph /  4.8km/h 39% 0.00in /  0mm 0.0 W/m2
21:49 54.3 °F /  12.4 °C 29.8 °F /  -1.2 °C 30.39in /  1029hPa Calm   1.0mph /  1.6km/h 39% 0.00in /  0mm 0.0 W/m2
21:55 54.1 °F /  12.3 °C 29.7 °F /  -1.3 °C 30.39in /  1029hPa Calm   2.0mph /  3.2km/h 39% 0.00in /  0mm 0.0 W/m2
22:01 54.1 °F /  12.3 °C 29.7 °F /  -1.3 °C 30.39in /  1029hPa Calm     39% 0.00in /  0mm 0.0 W/m2
22:08 54.1 °F /  12.3 °C 29.7 °F /  -1.3 °C 30.39in /  1029hPa ESE 0.9mph /  1.4km/h 2.0mph /  3.2km/h 39% 0.00in /  0mm 0.0 W/m2
22:14 54.3 °F /  12.4 °C 29.8 °F /  -1.2 °C 30.39in /  1029hPa Calm     39% 0.00in /  0mm 0.0 W/m2
22:20 54.3 °F /  12.4 °C 29.8 °F /  -1.2 °C 30.39in /  1029hPa ENE 0.9mph /  1.4km/h 4.0mph /  6.4km/h 39% 0.00in /  0mm 0.0 W/m2
22:26 54.5 °F /  12.5 °C 30.0 °F /  -1.1 °C 30.39in /  1029hPa East 0.9mph /  1.4km/h 3.0mph /  4.8km/h 39% 0.00in /  0mm 0.0 W/m2
22:32 54.7 °F /  12.6 °C 30.2 °F /  -1 °C 30.39in /  1029hPa Calm     39% 0.00in /  0mm 0.0 W/m2
22:38 54.7 °F /  12.6 °C 30.2 °F /  -1 °C 30.39in /  1029hPa Calm   1.0mph /  1.6km/h 39% 0.00in /  0mm 0.0 W/m2
22:44 54.3 °F /  12.4 °C 29.8 °F /  -1.2 °C 30.38in /  1028.7hPa ESE 0.9mph /  1.4km/h 1.0mph /  1.6km/h 39% 0.00in /  0mm 0.0 W/m2
22:51 54.1 °F /  12.3 °C 29.7 °F /  -1.3 °C 30.38in /  1028.7hPa Calm     39% 0.00in /  0mm 0.0 W/m2
22:57 54.0 °F /  12.2 °C 29.5 °F /  -1.4 °C 30.39in /  1029hPa Calm   2.0mph /  3.2km/h 39% 0.00in /  0mm 0.0 W/m2
23:03 53.8 °F /  12.1 °C 30.0 °F /  -1.1 °C 30.38in /  1028.7hPa Calm     40% 0.00in /  0mm 0.0 W/m2
23:09 53.6 °F /  12 °C 29.8 °F /  -1.2 °C 30.39in /  1029hPa Calm   1.0mph /  1.6km/h 40% 0.00in /  0mm 0.0 W/m2
23:15 53.4 °F /  11.9 °C 29.7 °F /  -1.3 °C 30.38in /  1028.7hPa Calm     40% 0.00in /  0mm 0.0 W/m2
23:21 53.6 °F /  12 °C 29.8 °F /  -1.2 °C 30.38in /  1028.7hPa Calm     40% 0.00in /  0mm 0.0 W/m2
23:27 53.4 °F /  11.9 °C 29.7 °F /  -1.3 °C 30.38in /  1028.7hPa Calm     40% 0.00in /  0mm 0.0 W/m2
23:33 53.2 °F /  11.8 °C 29.5 °F /  -1.4 °C 30.38in /  1028.7hPa Calm     40% 0.00in /  0mm 0.0 W/m2
23:40 53.1 °F /  11.7 °C 29.3 °F /  -1.5 °C 30.38in /  1028.7hPa ESE 0.9mph /  1.4km/h 2.0mph /  3.2km/h 40% 0.00in /  0mm 0.0 W/m2
23:46 52.7 °F /  11.5 °C 29.7 °F /  -1.3 °C 30.38in /  1028.7hPa Calm     41% 0.00in /  0mm 0.0 W/m2
23:52 52.3 °F /  11.3 °C 29.3 °F /  -1.5 °C 30.38in /  1028.7hPa Calm     41% 0.00in /  0mm 0.0 W/m2
23:58 52.2 °F /  11.2 °C 29.1 °F /  -1.6 °C 30.38in /  1028.7hPa Calm     41% 0.00in /  0mm 0.0 W/m2
Olympia, Windhoek, Namibia
Compliments of Weather Underground - 3 mb